Time;durP1;ratioP1;P1;durP2;ratioP2;P2;SDS_P1;SDS_P2;PMS_P1;PMS_P2;Temp;Humidity;BMP_temperature;BMP_pressure;BME280_temperature;BME280_humidity;BME280_pressure;Samples;Min_cycle;Max_cycle;Signal;HPM_P1;HPM_P2
2022/01/10 00:00:00;;;;;;;;;43.25;39.00;;;;;-147.17;100.00;50170.78;5014007;28;51650;-66
2022/01/10 00:02:26;;;;;;;;;40.75;38.25;;;;;-147.17;100.00;50155.03;5021091;28;51204;-63
2022/01/10 00:04:52;;;;;;;;;45.00;41.50;;;;;-147.17;100.00;50172.75;5016896;28;53072;-63
2022/01/10 00:07:17;;;;;;;;;43.50;38.75;;;;;-147.17;100.00;50151.09;5018087;28;52309;-62
2022/01/10 00:09:43;;;;;;;;;47.75;40.25;;;;;-147.17;100.00;50180.63;5018390;28;52852;-62
2022/01/10 00:12:09;;;;;;;;;47.50;40.50;;;;;-147.17;100.00;50168.81;5018422;28;53036;-64
2022/01/10 00:14:35;;;;;;;;;53.50;46.00;;;;;-147.17;100.00;50143.22;5018667;28;51893;-64
2022/01/10 00:17:00;;;;;;;;;55.75;46.75;;;;;-147.17;100.00;50162.91;5021590;28;51770;-66
2022/01/10 00:19:26;;;;;;;;;52.50;45.00;;;;;-147.17;100.00;50153.06;5023147;28;51194;-63
2022/01/10 00:21:51;;;;;;;;;50.25;43.75;;;;;-147.17;100.00;50157.00;5017624;28;53197;-63
2022/01/10 00:24:16;;;;;;;;;53.00;45.25;;;;;-147.17;100.00;50119.59;5016622;28;52324;-63
2022/01/10 00:26:42;;;;;;;;;55.25;45.75;;;;;-147.17;100.00;50162.91;5021419;28;51298;-63
2022/01/10 00:29:07;;;;;;;;;50.75;42.25;;;;;-147.17;100.00;50162.91;5017719;28;51265;-62
2022/01/10 00:31:33;;;;;;;;;51.25;44.50;;;;;-147.17;100.00;50162.91;5024782;28;51168;-63
2022/01/10 00:33:58;;;;;;;;;48.00;41.50;;;;;-147.17;100.00;50135.34;5021898;28;52294;-64
2022/01/10 00:36:25;;;;;;;;;41.00;36.75;;;;;-147.17;100.00;50158.97;5021788;28;51192;-62
2022/01/10 00:38:50;;;;;;;;;46.00;41.75;;;;;-147.17;100.00;50101.88;5018373;28;51046;-64
2022/01/10 00:41:16;;;;;;;;;51.50;43.00;;;;;-147.17;100.00;50127.47;5028372;28;51457;-64
2022/01/10 00:43:45;;;;;;;;;49.25;43.50;;;;;-147.17;100.00;50166.84;5025589;28;51176;-65
2022/01/10 00:46:11;;;;;;;;;48.00;40.75;;;;;-147.17;100.00;50143.22;5020632;28;51351;-64
2022/01/10 00:48:36;;;;;;;;;51.50;43.75;;;;;-147.17;100.00;50153.06;5031502;28;51195;-64
2022/01/10 00:51:02;;;;;;;;;45.25;39.25;;;;;-147.17;100.00;50139.28;5023899;28;51150;-65
2022/01/10 00:53:28;;;;;;;;;42.00;39.50;;;;;-147.17;100.00;50162.91;5027885;28;51148;-65
2022/01/10 00:55:53;;;;;;;;;52.00;43.25;;;;;-147.17;100.00;50147.16;5017213;28;50841;-64
2022/01/10 00:58:18;;;;;;;;;44.75;38.75;;;;;-147.17;100.00;50155.03;5024573;28;51169;-64
2022/01/10 01:00:44;;;;;;;;;50.25;43.25;;;;;-147.17;100.00;50143.22;5021296;28;50951;-65
2022/01/10 01:03:09;;;;;;;;;54.00;43.75;;;;;-147.17;100.00;50198.34;5023783;28;51510;-65
2022/01/10 01:05:40;;;;;;;;;46.00;41.00;;;;;-147.17;100.00;50190.47;5026101;28;51086;-64
2022/01/10 01:08:07;;;;;;;;;46.50;42.00;;;;;-147.17;100.00;50141.25;5021404;28;51085;-64
2022/01/10 01:13:26;;;;;;;;;55.75;44.25;;;;;-147.17;100.00;50125.50;5018550;28;51665;-63
2022/01/10 01:26:51;;;;;;;;;48.25;43.00;;;;;-147.17;100.00;50174.72;5015818;28;51264;-64
2022/01/10 01:29:20;;;;;;;;;41.50;38.50;;;;;-147.17;100.00;50162.91;5027430;28;51306;-64
2022/01/10 01:31:46;;;;;;;;;42.25;39.50;;;;;-147.17;100.00;50174.72;5016809;28;51156;-63
2022/01/10 01:34:14;;;;;;;;;44.25;39.00;;;;;-147.17;100.00;50164.88;5017300;28;51134;-63
2022/01/10 01:36:41;;;;;;;;;46.00;39.00;;;;;-147.17;100.00;50151.09;5018770;28;50923;-62
2022/01/10 01:39:17;;;;;;;;;42.75;39.00;;;;;-147.17;100.00;50164.88;5019328;28;51122;-62
2022/01/10 01:41:43;;;;;;;;;46.50;38.75;;;;;-147.17;100.00;50184.56;5023315;28;51129;-62
2022/01/10 01:44:09;;;;;;;;;35.50;34.00;;;;;-147.17;100.00;50168.81;5022803;28;53881;-62
2022/01/10 01:46:36;;;;;;;;;39.25;36.25;;;;;-147.17;100.00;50149.13;5017197;28;51389;-62
2022/01/10 01:49:04;;;;;;;;;38.50;35.75;;;;;-147.17;100.00;50162.91;5025084;28;51165;-61
2022/01/10 01:51:29;;;;;;;;;42.25;38.75;;;;;-147.17;100.00;50149.13;5031383;28;51005;-62
2022/01/10 01:53:55;;;;;;;;;43.75;39.00;;;;;-147.17;100.00;50155.03;5016737;28;51582;-64
2022/01/10 01:56:21;;;;;;;;;37.00;34.75;;;;;-147.17;100.00;50190.47;5020707;28;51092;-62
2022/01/10 01:58:47;;;;;;;;;37.75;35.25;;;;;-147.17;100.00;50194.41;5023843;28;51052;-61
2022/01/10 02:01:16;;;;;;;;;41.00;38.00;;;;;-147.17;100.00;50176.69;5016762;28;53103;-61
2022/01/10 02:03:43;;;;;;;;;45.25;39.75;;;;;-147.17;100.00;50151.09;5017047;28;51755;-61
2022/01/10 02:06:08;;;;;;;;;42.50;39.50;;;;;-147.17;100.00;50186.53;5016633;28;51290;-62
2022/01/10 02:08:35;;;;;;;;;45.25;38.00;;;;;-147.17;100.00;50174.72;5017931;28;52527;-61
2022/01/10 02:11:07;;;;;;;;;45.25;39.00;;;;;-147.17;100.00;50162.91;5021581;28;51279;-62
2022/01/10 02:13:33;;;;;;;;;44.50;40.00;;;;;-147.17;100.00;50198.34;5026699;28;51171;-61
2022/01/10 02:16:05;;;;;;;;;53.50;45.25;;;;;-147.17;100.00;50192.44;5023544;28;51255;-63
2022/01/10 02:18:31;;;;;;;;;40.50;36.50;;;;;-147.17;100.00;50166.84;5018135;28;51628;-63
2022/01/10 02:21:00;;;;;;;;;39.75;36.50;;;;;-147.17;100.00;50168.81;5024101;28;51055;-63
2022/01/10 02:23:26;;;;;;;;;45.00;39.75;;;;;-147.17;100.00;50172.75;5018589;28;51172;-62
2022/01/10 02:25:51;;;;;;;;;43.25;40.25;;;;;-147.17;100.00;50162.91;5020052;28;51359;-63
2022/01/10 02:28:17;;;;;;;;;45.00;40.25;;;;;-147.17;100.00;50186.53;5023269;28;51534;-62
2022/01/10 02:30:42;;;;;;;;;47.50;40.50;;;;;-147.17;100.00;50166.84;5026494;28;51257;-62
2022/01/10 02:33:08;;;;;;;;;45.50;39.25;;;;;-147.17;100.00;50139.28;5023961;28;51558;-63
2022/01/10 02:36:02;;;;;;;;;42.00;39.25;;;;;-147.17;100.00;50172.75;5020470;28;51116;-63
2022/01/10 02:38:28;;;;;;;;;43.75;39.50;;;;;-147.17;100.00;50155.03;5020146;28;51202;-65
2022/01/10 02:40:55;;;;;;;;;37.25;34.75;;;;;-147.17;100.00;50139.28;5024950;28;51371;-62
2022/01/10 02:43:20;;;;;;;;;44.00;39.25;;;;;-147.17;100.00;50147.16;5022781;28;52139;-62
2022/01/10 02:45:47;;;;;;;;;35.25;33.00;;;;;-147.17;100.00;50186.53;5020815;28;51304;-63
2022/01/10 02:48:12;;;;;;;;;50.00;41.25;;;;;-147.17;100.00;50139.28;5023050;28;51301;-63
2022/01/10 02:50:37;;;;;;;;;47.00;40.50;;;;;-147.17;100.00;50174.72;5021363;28;51185;-63
2022/01/10 02:53:03;;;;;;;;;43.50;38.75;;;;;-147.17;100.00;50170.78;5021048;28;51836;-64
2022/01/10 02:55:29;;;;;;;;;43.00;39.25;;;;;-147.17;100.00;50149.13;5029184;28;52397;-64
2022/01/10 02:57:54;;;;;;;;;37.50;36.75;;;;;-147.17;100.00;50119.59;5022670;28;51281;-64
2022/01/10 03:00:22;;;;;;;;;41.25;39.00;;;;;-147.17;100.00;50145.19;5019089;28;51307;-64
2022/01/10 03:02:50;;;;;;;;;45.75;40.00;;;;;-147.17;100.00;50143.22;5025924;28;51120;-64
2022/01/10 03:05:17;;;;;;;;;46.00;39.75;;;;;-147.17;100.00;50178.66;5017901;28;51133;-63
2022/01/10 03:07:42;;;;;;;;;45.75;41.25;;;;;-147.17;100.00;50141.25;5016532;28;51491;-62
2022/01/10 03:10:08;;;;;;;;;42.75;39.00;;;;;-147.17;100.00;50149.13;5014704;28;52277;-62
2022/01/10 03:12:35;;;;;;;;;40.75;38.50;;;;;-147.17;100.00;50127.47;5018064;28;52714;-62
2022/01/10 03:15:02;;;;;;;;;42.00;39.00;;;;;-147.17;100.00;50172.75;5021212;28;51149;-61
2022/01/10 03:17:28;;;;;;;;;47.00;40.50;;;;;-147.17;100.00;50133.38;5019481;28;51799;-62
2022/01/10 03:19:53;;;;;;;;;51.00;43.75;;;;;-147.17;100.00;50143.22;5014952;28;51098;-62
2022/01/10 03:22:19;;;;;;;;;47.75;43.25;;;;;-147.17;100.00;50143.22;5018399;28;52287;-61
2022/01/10 03:24:44;;;;;;;;;53.75;46.25;;;;;-147.17;100.00;50147.16;5018123;28;51027;-63
2022/01/10 03:27:10;;;;;;;;;57.75;47.50;;;;;-147.17;100.00;50145.19;5019662;28;51679;-63
2022/01/10 03:29:36;;;;;;;;;62.25;51.50;;;;;-147.17;100.00;50155.03;5023643;28;51236;-65
2022/01/10 03:32:02;;;;;;;;;72.25;57.50;;;;;-147.17;100.00;50135.34;5027606;28;52182;-64
2022/01/10 03:34:28;;;;;;;;;68.50;56.00;;;;;-147.17;100.00;50145.19;5024292;28;51254;-64
2022/01/10 03:36:54;;;;;;;;;65.00;52.00;;;;;-147.17;100.00;50147.16;5014577;28;51301;-63
2022/01/10 03:39:19;;;;;;;;;65.00;53.50;;;;;-147.17;100.00;50139.28;5016607;28;51216;-64
2022/01/10 03:41:44;;;;;;;;;69.25;55.50;;;;;-147.17;100.00;50149.13;5022929;28;51739;-64
2022/01/10 03:44:10;;;;;;;;;70.25;56.00;;;;;-147.17;100.00;50131.41;5018350;28;51153;-63
2022/01/10 03:46:36;;;;;;;;;69.25;56.00;;;;;-147.17;100.00;50117.63;5022831;28;51379;-63
2022/01/10 03:49:02;;;;;;;;;78.25;62.00;;;;;-147.17;100.00;50143.22;5023390;28;51196;-61
2022/01/10 03:51:27;;;;;;;;;84.50;65.50;;;;;-147.17;100.00;50153.06;5023495;28;51197;-61
2022/01/10 03:53:53;;;;;;;;;74.75;60.00;;;;;-147.17;100.00;50127.47;5014861;28;51146;-62
2022/01/10 03:56:20;;;;;;;;;77.25;61.00;;;;;-147.17;100.00;50121.56;5022753;28;51084;-62
2022/01/10 03:58:45;;;;;;;;;79.50;64.00;;;;;-147.17;100.00;50135.34;5011514;28;51097;-62
2022/01/10 04:01:12;;;;;;;;;78.75;63.00;;;;;-147.17;100.00;50151.09;5011563;28;51070;-62
2022/01/10 04:03:38;;;;;;;;;85.75;68.25;;;;;-147.17;100.00;50147.16;5009043;28;51560;-62
2022/01/10 04:06:04;;;;;;;;;81.50;65.50;;;;;-147.17;100.00;50135.34;5024965;28;51271;-62
2022/01/10 04:08:30;;;;;;;;;80.25;64.00;;;;;-147.17;100.00;50105.81;5028176;28;51225;-62
2022/01/10 04:10:55;;;;;;;;;73.75;59.50;;;;;-147.17;100.00;50147.16;5029174;28;50992;-63
2022/01/10 04:13:21;;;;;;;;;46.50;39.00;;;;;-147.17;100.00;50092.03;5018290;28;51062;-62
2022/01/10 04:15:47;;;;;;;;;66.25;55.00;;;;;-147.17;100.00;50149.13;5011652;28;51056;-62
2022/01/10 04:18:12;;;;;;;;;59.75;49.25;;;;;-147.17;100.00;50127.47;5025955;28;51120;-62
2022/01/10 04:20:38;;;;;;;;;59.25;48.50;;;;;-147.17;100.00;50123.53;5018220;28;51130;-62
2022/01/10 04:23:03;;;;;;;;;49.50;44.00;;;;;-147.17;100.00;50133.38;5029728;28;50930;-62
2022/01/10 04:25:28;;;;;;;;;52.75;44.00;;;;;-147.17;100.00;50162.91;5012521;28;51226;-62
2022/01/10 04:27:54;;;;;;;;;50.75;41.00;;;;;-147.17;100.00;50127.47;5019042;28;52291;-63
2022/01/10 04:30:20;;;;;;;;;54.25;44.50;;;;;-147.17;100.00;50119.59;5029150;28;51968;-62
2022/01/10 04:32:45;;;;;;;;;51.50;43.50;;;;;-147.17;100.00;50166.84;5026510;28;51078;-62
2022/01/10 04:35:12;;;;;;;;;46.00;41.50;;;;;-147.17;100.00;50160.94;5033849;28;51000;-62
2022/01/10 04:37:37;;;;;;;;;49.25;42.50;;;;;-147.17;100.00;50133.38;5016509;28;51348;-63
2022/01/10 04:40:04;;;;;;;;;44.25;40.25;;;;;-147.17;100.00;50123.53;5014643;28;51121;-63
2022/01/10 04:42:30;;;;;;;;;55.50;46.75;;;;;-147.17;100.00;50151.09;5017569;28;51465;-63
2022/01/10 04:44:55;;;;;;;;;44.75;39.25;;;;;-147.17;100.00;50107.78;5023638;28;51527;-63
2022/01/10 04:47:21;;;;;;;;;48.75;41.00;;;;;-147.17;100.00;50123.53;5019748;28;51138;-63
2022/01/10 04:52:45;;;;;;;;;49.50;43.50;;;;;-147.17;100.00;50129.44;4975064;28;51266;-63
2022/01/10 04:55:11;;;;;;;;;55.00;45.50;;;;;-147.17;100.00;50182.59;5031519;28;51274;-63
2022/01/10 04:57:37;;;;;;;;;50.75;42.25;;;;;-147.17;100.00;50133.38;5028613;28;51300;-65
2022/01/10 05:00:05;;;;;;;;;47.25;41.00;;;;;-147.17;100.00;50135.34;5018744;28;52189;-63
2022/01/10 05:02:30;;;;;;;;;44.00;40.25;;;;;-147.17;100.00;50123.53;5022126;28;50847;-62
2022/01/10 05:04:56;;;;;;;;;50.50;42.00;;;;;-147.17;100.00;50143.22;5023393;28;51351;-62
2022/01/10 05:07:21;;;;;;;;;46.25;40.25;;;;;-147.17;100.00;50115.66;5024143;28;51811;-61
2022/01/10 05:09:47;;;;;;;;;47.75;42.25;;;;;-147.17;100.00;50141.25;5016626;28;51184;-62
2022/01/10 05:12:12;;;;;;;;;46.25;40.25;;;;;-147.17;100.00;50127.47;5018626;28;51125;-63
2022/01/10 05:14:39;;;;;;;;;42.50;39.75;;;;;-147.17;100.00;50164.88;5021088;28;51318;-62
2022/01/10 05:17:04;;;;;;;;;48.50;42.25;;;;;-147.17;100.00;50158.97;5030284;28;51486;-62
2022/01/10 05:19:29;;;;;;;;;44.00;40.50;;;;;-147.17;100.00;50155.03;5018885;28;51781;-62
2022/01/10 05:21:55;;;;;;;;;49.25;41.75;;;;;-147.17;100.00;50105.81;5022276;28;51351;-63
2022/01/10 05:24:20;;;;;;;;;50.25;44.00;;;;;-147.17;100.00;50129.44;5014442;28;51509;-63
2022/01/10 05:26:45;;;;;;;;;52.75;44.50;;;;;-147.17;100.00;50133.38;5024135;28;50983;-63
2022/01/10 05:29:11;;;;;;;;;39.25;37.25;;;;;-147.17;100.00;50095.97;5019922;28;51965;-63
2022/01/10 05:31:36;;;;;;;;;59.50;48.75;;;;;-147.17;100.00;50157.00;5017612;28;52058;-62
2022/01/10 05:34:02;;;;;;;;;51.00;44.50;;;;;-147.17;100.00;50143.22;5031838;28;51607;-62
2022/01/10 05:36:28;;;;;;;;;54.50;45.50;;;;;-147.17;100.00;50147.16;5015661;28;51679;-62
2022/01/10 05:38:53;;;;;;;;;55.00;47.75;;;;;-147.17;100.00;50123.53;5026539;28;52017;-62
2022/01/10 05:41:21;;;;;;;;;55.75;46.25;;;;;-147.17;100.00;50125.50;5025994;28;51098;-62
2022/01/10 05:43:47;;;;;;;;;54.00;44.75;;;;;-147.17;100.00;50109.75;5031319;28;51280;-62
2022/01/10 05:46:15;;;;;;;;;54.50;46.75;;;;;-147.17;100.00;50129.44;5024113;28;51443;-62
2022/01/10 05:48:46;;;;;;;;;55.50;45.25;;;;;-147.17;100.00;50111.72;5016669;28;52885;-61
2022/01/10 05:51:11;;;;;;;;;50.00;44.00;;;;;-147.17;100.00;50135.34;5022727;28;50857;-62
2022/01/10 05:53:37;;;;;;;;;54.75;45.75;;;;;-147.17;100.00;50139.28;5013893;28;50830;-62
2022/01/10 05:56:02;;;;;;;;;53.00;46.00;;;;;-147.17;100.00;50125.50;5018577;28;51291;-62
2022/01/10 05:58:28;;;;;;;;;53.00;45.75;;;;;-147.17;100.00;50107.78;5013474;28;51958;-62
2022/01/10 06:00:53;;;;;;;;;59.75;49.25;;;;;-147.17;100.00;50121.56;5014593;28;51039;-62
2022/01/10 06:03:18;;;;;;;;;52.75;44.75;;;;;-147.17;100.00;50113.69;5013298;28;53082;-62
2022/01/10 06:05:44;;;;;;;;;51.00;44.00;;;;;-147.17;100.00;50170.78;5025584;28;52000;-62
2022/01/10 06:08:10;;;;;;;;;51.50;44.25;;;;;-147.17;100.00;50123.53;5018342;28;51613;-62
2022/01/10 06:10:36;;;;;;;;;50.25;45.00;;;;;-147.17;100.00;50103.84;5020124;28;51389;-61
2022/01/10 06:13:01;;;;;;;;;54.25;42.50;;;;;-147.17;100.00;50141.25;5020393;28;51145;-62
2022/01/10 06:15:27;;;;;;;;;49.50;44.50;;;;;-147.17;100.00;50123.53;5026304;28;51124;-62
2022/01/10 06:17:53;;;;;;;;;45.75;41.25;;;;;-147.17;100.00;50139.28;5027068;28;51204;-63
2022/01/10 06:20:18;;;;;;;;;50.25;43.75;;;;;-147.17;100.00;50141.25;5021403;28;51021;-63
2022/01/10 06:22:44;;;;;;;;;48.50;41.50;;;;;-147.17;100.00;50111.72;5015926;28;51173;-63
2022/01/10 06:25:13;;;;;;;;;46.00;41.00;;;;;-147.17;100.00;50133.38;5015541;28;50890;-63
2022/01/10 06:27:39;;;;;;;;;45.25;40.25;;;;;-147.17;100.00;50162.91;5016207;28;51261;-62
2022/01/10 06:30:06;;;;;;;;;47.00;40.50;;;;;-147.17;100.00;50127.47;5014634;28;51196;-61
2022/01/10 06:32:31;;;;;;;;;48.25;42.75;;;;;-147.17;100.00;50157.00;5017759;28;51161;-63
2022/01/10 06:34:57;;;;;;;;;53.00;44.00;;;;;-147.17;100.00;50153.06;5014083;28;51436;-63
2022/01/10 06:37:23;;;;;;;;;56.50;45.75;;;;;-147.17;100.00;50151.09;5017994;28;51760;-63
2022/01/10 06:39:49;;;;;;;;;47.25;40.75;;;;;-147.17;100.00;50139.28;5025423;28;51227;-63
2022/01/10 06:42:14;;;;;;;;;46.75;41.00;;;;;-147.17;100.00;50170.78;5016947;28;51069;-63
2022/01/10 06:44:40;;;;;;;;;51.50;41.25;;;;;-147.17;100.00;50151.09;5013601;28;51080;-63
2022/01/10 06:47:05;;;;;;;;;47.25;41.25;;;;;-147.17;100.00;50166.84;5019666;28;51585;-64
2022/01/10 06:49:31;;;;;;;;;43.25;39.25;;;;;-147.17;100.00;50151.09;5026779;28;51188;-63
2022/01/10 06:51:56;;;;;;;;;40.50;37.75;;;;;-147.17;100.00;50166.84;5018705;28;51271;-62
2022/01/10 06:54:22;;;;;;;;;37.00;31.25;;;;;-147.17;100.00;50135.34;5012266;28;50897;-62
2022/01/10 06:56:47;;;;;;;;;38.00;33.25;;;;;-147.17;100.00;50178.66;5017821;28;51611;-62
2022/01/10 06:59:13;;;;;;;;;37.25;30.50;;;;;-147.17;100.00;50178.66;5030566;28;51069;-62
2022/01/10 07:01:38;;;;;;;;;41.25;38.25;;;;;-147.17;100.00;50151.09;5020497;28;51660;-62
2022/01/10 07:04:04;;;;;;;;;24.75;24.00;;;;;-147.17;100.00;50155.03;5013533;28;51199;-63
2022/01/10 07:06:29;;;;;;;;;41.00;36.00;;;;;-147.17;100.00;50151.09;5018088;28;51757;-63
2022/01/10 07:08:54;;;;;;;;;33.25;30.50;;;;;-147.17;100.00;50162.91;5015908;28;51205;-63
2022/01/10 07:11:20;;;;;;;;;34.75;31.25;;;;;-147.17;100.00;50135.34;5021195;28;51379;-63
2022/01/10 07:13:45;;;;;;;;;36.50;32.25;;;;;-147.17;100.00;50123.53;5014786;28;51411;-63
2022/01/10 07:16:11;;;;;;;;;31.50;29.75;;;;;-147.17;100.00;50131.41;5020195;28;51686;-63
2022/01/10 07:18:37;;;;;;;;;44.25;39.00;;;;;-147.17;100.00;50119.59;5015764;28;51314;-62
2022/01/10 07:21:02;;;;;;;;;38.50;33.25;;;;;-147.17;100.00;50119.59;5021674;28;51480;-63
2022/01/10 07:23:28;;;;;;;;;43.25;40.00;;;;;-147.17;100.00;50129.44;5030392;28;51209;-62
2022/01/10 07:25:53;;;;;;;;;48.25;41.25;;;;;-147.17;100.00;50145.19;5021915;28;51289;-63
2022/01/10 07:28:18;;;;;;;;;36.00;32.75;;;;;-147.17;100.00;50115.66;5016613;28;51097;-64
2022/01/10 07:30:44;;;;;;;;;32.75;28.50;;;;;-147.17;100.00;50141.25;5023539;28;51263;-63
2022/01/10 07:33:10;;;;;;;;;41.00;32.75;;;;;-147.17;100.00;50174.72;5018017;28;51176;-63
2022/01/10 07:35:35;;;;;;;;;36.75;36.75;;;;;-147.17;100.00;50119.59;5020713;28;51130;-62
2022/01/10 07:38:00;;;;;;;;;40.00;35.50;;;;;-147.17;100.00;50125.50;5020618;28;51144;-63
2022/01/10 07:40:26;;;;;;;;;33.25;31.50;;;;;-147.17;100.00;50125.50;5023911;28;50915;-64
2022/01/10 07:42:52;;;;;;;;;35.50;31.50;;;;;-147.17;100.00;50151.09;5012052;28;51073;-64
2022/01/10 07:45:18;;;;;;;;;28.75;25.75;;;;;-147.17;100.00;50137.31;5011031;28;52933;-62
2022/01/10 07:47:44;;;;;;;;;33.75;32.00;;;;;-147.17;100.00;50125.50;5011617;28;52666;-61
2022/01/10 07:50:10;;;;;;;;;31.50;28.25;;;;;-147.17;100.00;50125.50;5019822;28;51386;-61
2022/01/10 07:52:35;;;;;;;;;35.75;34.50;;;;;-147.17;100.00;50170.78;5015144;28;51287;-61
2022/01/10 07:55:01;;;;;;;;;35.50;32.25;;;;;-147.17;100.00;50170.78;5018534;28;51455;-64
2022/01/10 07:57:27;;;;;;;;;29.25;28.00;;;;;-147.17;100.00;50198.34;5013543;28;51239;-62
2022/01/10 07:59:52;;;;;;;;;38.25;34.50;;;;;-147.17;100.00;50172.75;5011131;28;51261;-61
2022/01/10 08:02:20;;;;;;;;;28.75;27.50;;;;;-147.17;100.00;50180.63;5015358;28;51245;-62
2022/01/10 08:04:46;;;;;;;;;25.25;23.75;;;;;-147.17;100.00;50182.59;5015183;28;53008;-62
2022/01/10 08:07:11;;;;;;;;;24.75;23.00;;;;;-147.17;100.00;50192.44;5017362;28;51200;-62
2022/01/10 08:09:37;;;;;;;;;26.75;24.75;;;;;-147.17;100.00;50196.38;5017572;28;51232;-63
2022/01/10 08:12:02;;;;;;;;;25.25;22.00;;;;;-147.17;100.00;50190.47;5018745;28;51275;-63
2022/01/10 08:14:29;;;;;;;;;26.50;25.50;;;;;-147.17;100.00;50174.72;5016747;28;52994;-64
2022/01/10 08:16:56;;;;;;;;;12.75;11.00;;;;;-147.17;100.00;50214.09;5014863;28;51537;-64
2022/01/10 08:19:21;;;;;;;;;17.25;16.50;;;;;-147.17;100.00;50221.97;5016660;28;52071;-63
2022/01/10 08:21:47;;;;;;;;;18.75;15.75;;;;;-147.17;100.00;50210.16;5016651;28;52154;-63
2022/01/10 08:24:12;;;;;;;;;18.50;17.00;;;;;-147.17;100.00;50198.34;5020632;28;52058;-63
2022/01/10 08:26:40;;;;;;;;;14.50;14.50;;;;;-147.17;100.00;50204.25;5015676;28;51681;-63
2022/01/10 08:29:05;;;;;;;;;21.50;20.50;;;;;-147.17;100.00;50223.94;5019436;28;51133;-63
2022/01/10 08:31:31;;;;;;;;;17.25;15.25;;;;;-147.17;100.00;50204.25;5020549;28;52445;-63
2022/01/10 08:33:56;;;;;;;;;18.25;16.50;;;;;-147.17;100.00;50162.91;5018811;28;51958;-63
2022/01/10 08:36:22;;;;;;;;;19.25;17.25;;;;;-147.17;100.00;50218.03;5019676;28;51127;-63
2022/01/10 08:38:47;;;;;;;;;19.50;18.00;;;;;-147.17;100.00;50186.53;5020110;28;51587;-61
2022/01/10 08:41:12;;;;;;;;;22.50;17.25;;;;;-147.17;100.00;50172.75;5019292;28;51198;-62
2022/01/10 08:43:38;;;;;;;;;21.00;20.25;;;;;-147.17;100.00;50174.72;5018063;28;53742;-64
2022/01/10 08:46:03;;;;;;;;;21.50;19.00;;;;;-147.17;100.00;50149.13;5019886;28;51312;-61
2022/01/10 08:48:29;;;;;;;;;23.00;19.75;;;;;-147.17;100.00;50174.72;5017287;28;52872;-68
2022/01/10 08:50:55;;;;;;;;;17.75;17.00;;;;;-147.17;100.00;50196.38;5021531;28;51358;-65
2022/01/10 08:53:20;;;;;;;;;16.75;16.75;;;;;-147.17;100.00;50160.94;5024279;28;51109;-60
2022/01/10 08:55:47;;;;;;;;;16.25;16.00;;;;;-147.17;100.00;50182.59;5013539;28;51265;-61
2022/01/10 08:58:13;;;;;;;;;24.50;18.75;;;;;-147.17;100.00;50162.91;5017351;28;51335;-60
2022/01/10 09:00:39;;;;;;;;;24.25;20.75;;;;;-147.17;100.00;50186.53;5013425;28;51242;-60
2022/01/10 09:03:05;;;;;;;;;21.00;19.75;;;;;-147.17;100.00;50153.06;5015315;28;51085;-60
2022/01/10 09:05:32;;;;;;;;;21.25;19.50;;;;;-147.17;100.00;50151.09;5019683;28;51369;-60
2022/01/10 09:07:59;;;;;;;;;19.75;18.75;;;;;-147.17;100.00;50153.06;5017719;28;51414;-62
2022/01/10 09:10:28;;;;;;;;;19.50;17.75;;;;;-147.17;100.00;50186.53;5014850;28;51418;-61
2022/01/10 09:12:55;;;;;;;;;2.00;1.25;;;;;-147.17;100.00;50170.78;5015685;28;51347;-62
2022/01/10 09:15:21;;;;;;;;;21.50;19.25;;;;;-147.17;100.00;50145.19;5016575;28;51721;-62
2022/01/10 09:17:46;;;;;;;;;26.25;23.25;;;;;-147.17;100.00;50155.03;5017863;28;51329;-66
2022/01/10 09:20:12;;;;;;;;;24.25;20.00;;;;;-147.17;100.00;50153.06;5013675;28;51707;-60
2022/01/10 09:22:37;;;;;;;;;22.75;21.75;;;;;-147.17;100.00;50151.09;5017800;28;51093;-60
2022/01/10 09:25:04;;;;;;;;;24.50;23.50;;;;;-147.17;100.00;50168.81;5013629;28;52715;-61
2022/01/10 09:27:29;;;;;;;;;20.25;19.75;;;;;-147.17;100.00;50149.13;5016126;28;51172;-60
2022/01/10 09:29:54;;;;;;;;;18.00;17.00;;;;;-147.17;100.00;50178.66;5013185;28;51356;-61
2022/01/10 09:32:20;;;;;;;;;22.50;22.50;;;;;-147.17;100.00;50166.84;5010584;28;51224;-61
2022/01/10 09:34:45;;;;;;;;;24.25;21.25;;;;;-147.17;100.00;50170.78;5019054;28;51241;-60
2022/01/10 09:37:11;;;;;;;;;21.50;19.25;;;;;-147.17;100.00;50139.28;5020218;28;51882;-61
2022/01/10 09:39:37;;;;;;;;;27.50;24.75;;;;;-147.17;100.00;50139.28;5018372;28;51128;-60
2022/01/10 09:42:03;;;;;;;;;14.50;12.75;;;;;-147.17;100.00;50162.91;5012734;28;51148;-62
2022/01/10 09:44:28;;;;;;;;;30.25;28.25;;;;;-147.17;100.00;50158.97;4990740;28;52633;-62
2022/01/10 09:46:54;;;;;;;;;26.75;24.50;;;;;-147.17;100.00;50131.41;5038545;28;51469;-61
2022/01/10 09:49:20;;;;;;;;;23.25;22.00;;;;;-147.17;100.00;50125.50;5014226;28;51060;-60
2022/01/10 09:51:45;;;;;;;;;28.00;22.25;;;;;-147.17;100.00;50135.34;5015089;28;52093;-62
2022/01/10 09:54:12;;;;;;;;;38.75;32.75;;;;;-147.17;100.00;50184.56;5026466;28;50983;-62
2022/01/10 09:56:38;;;;;;;;;36.00;29.50;;;;;-147.17;100.00;50206.22;5015539;28;51142;-62
2022/01/10 09:59:05;;;;;;;;;39.25;33.75;;;;;-147.17;100.00;50174.72;5012381;28;51008;-61
2022/01/10 10:01:31;;;;;;;;;32.75;30.50;;;;;-147.17;100.00;50190.47;5012563;28;51251;-62
2022/01/10 10:03:59;;;;;;;;;41.25;35.75;;;;;-147.17;100.00;50170.78;5021443;28;51089;-61
2022/01/10 10:06:29;;;;;;;;;26.50;22.25;;;;;-147.17;100.00;50186.53;5018251;28;51137;-61
2022/01/10 10:09:04;;;;;;;;;40.00;35.25;;;;;-147.17;100.00;50166.84;5020998;28;51008;-62
2022/01/10 10:11:45;;;;;;;;;24.00;21.50;;;;;-147.17;100.00;50178.66;5019118;28;52766;-60
2022/01/10 10:14:13;;;;;;;;;29.00;27.00;;;;;-147.17;100.00;50143.22;5027663;28;51135;-62
2022/01/10 10:16:47;;;;;;;;;34.50;31.25;;;;;-147.17;100.00;50168.81;5025237;28;51131;-61
2022/01/10 10:19:14;;;;;;;;;42.00;32.25;;;;;-147.17;100.00;50153.06;5030648;28;51276;-62
2022/01/10 10:21:40;;;;;;;;;51.50;38.75;;;;;-147.17;100.00;50178.66;5020590;28;51439;-62
2022/01/10 10:24:05;;;;;;;;;39.75;33.25;;;;;-147.17;100.00;50153.06;5029042;28;51104;-62
2022/01/10 10:26:32;;;;;;;;;44.00;35.75;;;;;-147.17;100.00;50151.09;5027956;28;51413;-62
2022/01/10 10:28:58;;;;;;;;;41.00;38.25;;;;;-147.17;100.00;50151.09;5028709;28;51371;-62
2022/01/10 10:31:36;;;;;;;;;37.50;34.50;;;;;-147.17;100.00;50139.28;5017451;28;52648;-63
2022/01/10 10:34:04;;;;;;;;;37.50;32.50;;;;;-147.17;100.00;50121.56;5012839;28;50983;-61
2022/01/10 10:36:33;;;;;;;;;35.00;32.50;;;;;-147.17;100.00;50164.88;5018065;28;51188;-60
2022/01/10 10:39:00;;;;;;;;;37.25;36.00;;;;;-147.17;100.00;50151.09;5020055;28;51413;-61
2022/01/10 10:41:26;;;;;;;;;40.00;32.25;;;;;-147.17;100.00;50204.25;5024522;28;53112;-62
2022/01/10 10:43:51;;;;;;;;;36.75;33.75;;;;;-147.17;100.00;50190.47;5036815;28;51029;-62
2022/01/10 10:46:19;;;;;;;;;47.75;37.50;;;;;-147.17;100.00;50143.22;5015921;28;50884;-61
2022/01/10 10:48:53;;;;;;;;;34.50;32.25;;;;;-147.17;100.00;50160.94;5013228;28;50920;-62
2022/01/10 10:51:19;;;;;;;;;34.00;32.25;;;;;-147.17;100.00;50200.31;5012617;28;51697;-61
2022/01/10 10:53:45;;;;;;;;;33.00;29.50;;;;;-147.17;100.00;50186.53;5012453;28;51171;-62
2022/01/10 10:56:10;;;;;;;;;39.75;31.50;;;;;-147.17;100.00;50182.59;5012440;28;51005;-62
2022/01/10 10:58:36;;;;;;;;;36.50;33.50;;;;;-147.17;100.00;50162.91;5012359;28;50964;-62
2022/01/10 11:01:04;;;;;;;;;27.25;27.00;;;;;-147.17;100.00;50172.75;5011815;28;51046;-62
2022/01/10 11:03:30;;;;;;;;;31.00;28.50;;;;;-147.17;100.00;50164.88;5012095;28;51043;-61
2022/01/10 11:05:59;;;;;;;;;32.50;30.00;;;;;-147.17;100.00;50157.00;5012970;28;50888;-61